sensor_id;sensor_type;location;lat;lon;timestamp;P1;durP1;ratioP1;P2;durP2;ratioP2
23360;SDS011;11852;50.082;18.554;2023-07-02T00:00:59;12.7;;;7.8;;
23360;SDS011;11852;50.082;18.554;2023-07-02T00:02:04;11.2;;;6.7;;
23360;SDS011;11852;50.082;18.554;2023-07-02T00:03:09;12.1;;;7.6;;
23360;SDS011;11852;50.082;18.554;2023-07-02T00:04:14;13.0;;;7.6;;
23360;SDS011;11852;50.082;18.554;2023-07-02T00:05:19;11.9;;;7.7;;
23360;SDS011;11852;50.082;18.554;2023-07-02T00:06:24;11.8;;;7.8;;
23360;SDS011;11852;50.082;18.554;2023-07-02T00:07:29;14.0;;;8.1;;
23360;SDS011;11852;50.082;18.554;2023-07-02T00:08:34;13.4;;;8.1;;
23360;SDS011;11852;50.082;18.554;2023-07-02T00:09:40;12.6;;;7.6;;
23360;SDS011;11852;50.082;18.554;2023-07-02T00:10:44;13.2;;;7.7;;
23360;SDS011;11852;50.082;18.554;2023-07-02T00:11:49;11.7;;;7.9;;
23360;SDS011;11852;50.082;18.554;2023-07-02T00:12:54;12.1;;;7.7;;
23360;SDS011;11852;50.082;18.554;2023-07-02T00:13:59;13.1;;;8.0;;
23360;SDS011;11852;50.082;18.554;2023-07-02T00:15:04;11.6;;;7.6;;
23360;SDS011;11852;50.082;18.554;2023-07-02T00:16:10;13.0;;;7.6;;
23360;SDS011;11852;50.082;18.554;2023-07-02T00:17:15;13.3;;;7.6;;
23360;SDS011;11852;50.082;18.554;2023-07-02T00:18:19;13.4;;;8.7;;
23360;SDS011;11852;50.082;18.554;2023-07-02T00:19:24;13.6;;;7.9;;
23360;SDS011;11852;50.082;18.554;2023-07-02T00:20:29;15.6;;;8.1;;
23360;SDS011;11852;50.082;18.554;2023-07-02T00:21:35;16.8;;;7.4;;
23360;SDS011;11852;50.082;18.554;2023-07-02T00:22:40;11.9;;;7.9;;
23360;SDS011;11852;50.082;18.554;2023-07-02T00:23:45;11.5;;;7.4;;
23360;SDS011;11852;50.082;18.554;2023-07-02T00:24:52;12.6;;;7.1;;
23360;SDS011;11852;50.082;18.554;2023-07-02T00:25:57;13.3;;;7.8;;
23360;SDS011;11852;50.082;18.554;2023-07-02T00:27:02;10.3;;;7.0;;
23360;SDS011;11852;50.082;18.554;2023-07-02T00:28:07;12.4;;;7.9;;
23360;SDS011;11852;50.082;18.554;2023-07-02T00:29:12;11.5;;;7.8;;
23360;SDS011;11852;50.082;18.554;2023-07-02T00:30:17;12.0;;;7.6;;
23360;SDS011;11852;50.082;18.554;2023-07-02T00:31:23;10.9;;;7.5;;
23360;SDS011;11852;50.082;18.554;2023-07-02T00:32:28;12.2;;;7.2;;
23360;SDS011;11852;50.082;18.554;2023-07-02T00:33:33;10.6;;;6.9;;
23360;SDS011;11852;50.082;18.554;2023-07-02T00:34:38;12.8;;;8.0;;
23360;SDS011;11852;50.082;18.554;2023-07-02T00:35:43;12.3;;;7.3;;
23360;SDS011;11852;50.082;18.554;2023-07-02T00:36:48;12.5;;;7.6;;
23360;SDS011;11852;50.082;18.554;2023-07-02T00:37:53;11.8;;;7.4;;
23360;SDS011;11852;50.082;18.554;2023-07-02T00:38:58;10.4;;;7.0;;
23360;SDS011;11852;50.082;18.554;2023-07-02T00:40:04;12.3;;;7.6;;
23360;SDS011;11852;50.082;18.554;2023-07-02T00:41:09;11.6;;;7.9;;
23360;SDS011;11852;50.082;18.554;2023-07-02T00:42:14;10.9;;;7.4;;
23360;SDS011;11852;50.082;18.554;2023-07-02T00:43:19;10.8;;;7.3;;
23360;SDS011;11852;50.082;18.554;2023-07-02T00:44:24;12.3;;;7.3;;
23360;SDS011;11852;50.082;18.554;2023-07-02T00:45:29;12.2;;;7.0;;
23360;SDS011;11852;50.082;18.554;2023-07-02T00:46:34;11.3;;;6.8;;
23360;SDS011;11852;50.082;18.554;2023-07-02T00:47:39;11.8;;;7.2;;
23360;SDS011;11852;50.082;18.554;2023-07-02T00:48:47;10.2;;;7.0;;
23360;SDS011;11852;50.082;18.554;2023-07-02T00:49:52;11.6;;;7.6;;
23360;SDS011;11852;50.082;18.554;2023-07-02T00:50:57;10.4;;;6.9;;
23360;SDS011;11852;50.082;18.554;2023-07-02T00:52:02;13.1;;;7.2;;
23360;SDS011;11852;50.082;18.554;2023-07-02T00:53:07;10.5;;;7.2;;
23360;SDS011;11852;50.082;18.554;2023-07-02T00:54:12;11.2;;;7.8;;
23360;SDS011;11852;50.082;18.554;2023-07-02T00:55:17;11.9;;;7.5;;
23360;SDS011;11852;50.082;18.554;2023-07-02T00:56:24;12.5;;;7.4;;
23360;SDS011;11852;50.082;18.554;2023-07-02T00:57:28;11.8;;;7.6;;
23360;SDS011;11852;50.082;18.554;2023-07-02T00:58:34;10.4;;;7.2;;
23360;SDS011;11852;50.082;18.554;2023-07-02T00:59:38;10.6;;;7.2;;
23360;SDS011;11852;50.082;18.554;2023-07-02T01:00:43;11.6;;;7.2;;
23360;SDS011;11852;50.082;18.554;2023-07-02T01:01:48;10.7;;;6.9;;
23360;SDS011;11852;50.082;18.554;2023-07-02T01:02:54;11.9;;;7.2;;
23360;SDS011;11852;50.082;18.554;2023-07-02T01:04:02;12.0;;;7.6;;
23360;SDS011;11852;50.082;18.554;2023-07-02T01:05:06;11.7;;;7.7;;
23360;SDS011;11852;50.082;18.554;2023-07-02T01:06:11;12.0;;;7.9;;
23360;SDS011;11852;50.082;18.554;2023-07-02T01:07:17;12.5;;;7.8;;
23360;SDS011;11852;50.082;18.554;2023-07-02T01:08:23;12.9;;;7.8;;
23360;SDS011;11852;50.082;18.554;2023-07-02T01:09:28;13.2;;;7.6;;
23360;SDS011;11852;50.082;18.554;2023-07-02T01:10:33;12.3;;;7.3;;
23360;SDS011;11852;50.082;18.554;2023-07-02T01:12:47;14.3;;;7.3;;
23360;SDS011;11852;50.082;18.554;2023-07-02T01:13:53;11.9;;;7.1;;
23360;SDS011;11852;50.082;18.554;2023-07-02T01:14:58;11.2;;;7.3;;
23360;SDS011;11852;50.082;18.554;2023-07-02T01:16:02;13.4;;;7.9;;
23360;SDS011;11852;50.082;18.554;2023-07-02T01:17:06;11.7;;;7.2;;
23360;SDS011;11852;50.082;18.554;2023-07-02T01:18:12;11.8;;;7.3;;
23360;SDS011;11852;50.082;18.554;2023-07-02T01:20:32;11.6;;;7.5;;
23360;SDS011;11852;50.082;18.554;2023-07-02T01:21:38;10.3;;;7.1;;
23360;SDS011;11852;50.082;18.554;2023-07-02T01:22:43;11.9;;;7.2;;
23360;SDS011;11852;50.082;18.554;2023-07-02T01:23:48;12.2;;;7.3;;
23360;SDS011;11852;50.082;18.554;2023-07-02T01:24:53;12.4;;;7.0;;
23360;SDS011;11852;50.082;18.554;2023-07-02T01:25:58;11.2;;;7.1;;
23360;SDS011;11852;50.082;18.554;2023-07-02T01:27:03;13.0;;;7.6;;
23360;SDS011;11852;50.082;18.554;2023-07-02T01:28:08;11.5;;;7.0;;
23360;SDS011;11852;50.082;18.554;2023-07-02T01:29:17;10.3;;;7.0;;
23360;SDS011;11852;50.082;18.554;2023-07-02T01:30:21;11.8;;;6.8;;
23360;SDS011;11852;50.082;18.554;2023-07-02T01:31:26;11.7;;;7.1;;
23360;SDS011;11852;50.082;18.554;2023-07-02T01:32:32;9.7;;;6.4;;
23360;SDS011;11852;50.082;18.554;2023-07-02T01:33:37;10.5;;;6.9;;
23360;SDS011;11852;50.082;18.554;2023-07-02T01:34:41;10.6;;;6.2;;
23360;SDS011;11852;50.082;18.554;2023-07-02T01:35:46;10.9;;;6.5;;
23360;SDS011;11852;50.082;18.554;2023-07-02T01:36:54;12.3;;;6.4;;
23360;SDS011;11852;50.082;18.554;2023-07-02T01:37:59;9.6;;;6.5;;
23360;SDS011;11852;50.082;18.554;2023-07-02T01:39:07;10.2;;;6.7;;
23360;SDS011;11852;50.082;18.554;2023-07-02T01:40:13;10.9;;;6.5;;
23360;SDS011;11852;50.082;18.554;2023-07-02T01:41:18;10.0;;;7.1;;
23360;SDS011;11852;50.082;18.554;2023-07-02T01:42:23;9.5;;;6.3;;
23360;SDS011;11852;50.082;18.554;2023-07-02T01:43:27;10.1;;;6.6;;
23360;SDS011;11852;50.082;18.554;2023-07-02T01:44:32;10.2;;;6.2;;
23360;SDS011;11852;50.082;18.554;2023-07-02T01:45:37;10.2;;;6.0;;
23360;SDS011;11852;50.082;18.554;2023-07-02T01:46:42;10.1;;;6.9;;
23360;SDS011;11852;50.082;18.554;2023-07-02T01:47:47;10.5;;;6.8;;
23360;SDS011;11852;50.082;18.554;2023-07-02T01:48:52;10.0;;;6.5;;
23360;SDS011;11852;50.082;18.554;2023-07-02T01:49:57;9.5;;;6.4;;
23360;SDS011;11852;50.082;18.554;2023-07-02T01:51:05;10.4;;;6.7;;
23360;SDS011;11852;50.082;18.554;2023-07-02T01:52:10;11.1;;;6.2;;
23360;SDS011;11852;50.082;18.554;2023-07-02T01:53:14;9.2;;;6.3;;
23360;SDS011;11852;50.082;18.554;2023-07-02T01:54:20;12.4;;;6.5;;
23360;SDS011;11852;50.082;18.554;2023-07-02T01:55:25;8.9;;;6.0;;
23360;SDS011;11852;50.082;18.554;2023-07-02T01:56:30;9.8;;;6.8;;
23360;SDS011;11852;50.082;18.554;2023-07-02T01:57:35;8.8;;;6.2;;
23360;SDS011;11852;50.082;18.554;2023-07-02T01:58:40;11.1;;;7.3;;
23360;SDS011;11852;50.082;18.554;2023-07-02T01:59:44;10.7;;;6.8;;
23360;SDS011;11852;50.082;18.554;2023-07-02T02:00:51;10.8;;;6.1;;
23360;SDS011;11852;50.082;18.554;2023-07-02T02:01:56;10.0;;;6.0;;
23360;SDS011;11852;50.082;18.554;2023-07-02T02:03:01;11.9;;;6.6;;
23360;SDS011;11852;50.082;18.554;2023-07-02T02:04:06;9.1;;;5.7;;
23360;SDS011;11852;50.082;18.554;2023-07-02T02:05:11;9.7;;;6.2;;
23360;SDS011;11852;50.082;18.554;2023-07-02T02:06:16;10.5;;;6.2;;
23360;SDS011;11852;50.082;18.554;2023-07-02T02:07:22;9.8;;;6.2;;
23360;SDS011;11852;50.082;18.554;2023-07-02T02:08:27;12.5;;;6.9;;
23360;SDS011;11852;50.082;18.554;2023-07-02T02:09:35;10.0;;;6.0;;
23360;SDS011;11852;50.082;18.554;2023-07-02T02:10:39;10.0;;;6.0;;
23360;SDS011;11852;50.082;18.554;2023-07-02T02:11:45;10.6;;;7.0;;
23360;SDS011;11852;50.082;18.554;2023-07-02T02:12:49;9.9;;;6.7;;
23360;SDS011;11852;50.082;18.554;2023-07-02T02:13:56;9.7;;;6.2;;
23360;SDS011;11852;50.082;18.554;2023-07-02T02:15:00;10.9;;;6.3;;
23360;SDS011;11852;50.082;18.554;2023-07-02T02:16:06;10.8;;;7.0;;
23360;SDS011;11852;50.082;18.554;2023-07-02T02:17:11;11.0;;;6.4;;
23360;SDS011;11852;50.082;18.554;2023-07-02T02:18:16;10.9;;;7.0;;
23360;SDS011;11852;50.082;18.554;2023-07-02T02:19:22;10.4;;;6.6;;
23360;SDS011;11852;50.082;18.554;2023-07-02T02:20:27;11.5;;;6.4;;
23360;SDS011;11852;50.082;18.554;2023-07-02T02:21:31;11.0;;;6.5;;
23360;SDS011;11852;50.082;18.554;2023-07-02T02:22:36;12.4;;;7.0;;
23360;SDS011;11852;50.082;18.554;2023-07-02T02:23:41;11.9;;;7.5;;
23360;SDS011;11852;50.082;18.554;2023-07-02T02:24:46;11.9;;;6.0;;
23360;SDS011;11852;50.082;18.554;2023-07-02T02:25:51;10.1;;;6.2;;
23360;SDS011;11852;50.082;18.554;2023-07-02T02:26:56;11.0;;;6.6;;
23360;SDS011;11852;50.082;18.554;2023-07-02T02:28:00;9.4;;;6.4;;
23360;SDS011;11852;50.082;18.554;2023-07-02T02:29:07;10.5;;;6.1;;
23360;SDS011;11852;50.082;18.554;2023-07-02T02:30:11;10.2;;;6.7;;
23360;SDS011;11852;50.082;18.554;2023-07-02T02:31:17;10.3;;;6.1;;
23360;SDS011;11852;50.082;18.554;2023-07-02T02:32:22;10.8;;;6.3;;
23360;SDS011;11852;50.082;18.554;2023-07-02T02:33:27;10.0;;;6.7;;
23360;SDS011;11852;50.082;18.554;2023-07-02T02:34:32;12.4;;;6.5;;
23360;SDS011;11852;50.082;18.554;2023-07-02T02:35:36;11.5;;;6.3;;
23360;SDS011;11852;50.082;18.554;2023-07-02T02:36:41;12.1;;;7.1;;
23360;SDS011;11852;50.082;18.554;2023-07-02T02:37:46;12.7;;;7.3;;
23360;SDS011;11852;50.082;18.554;2023-07-02T02:38:52;10.9;;;6.8;;
23360;SDS011;11852;50.082;18.554;2023-07-02T02:39:56;11.4;;;7.0;;
23360;SDS011;11852;50.082;18.554;2023-07-02T02:41:01;13.7;;;6.9;;
23360;SDS011;11852;50.082;18.554;2023-07-02T02:42:06;12.5;;;7.2;;
23360;SDS011;11852;50.082;18.554;2023-07-02T02:43:11;11.6;;;6.4;;
23360;SDS011;11852;50.082;18.554;2023-07-02T02:44:16;12.2;;;6.7;;
23360;SDS011;11852;50.082;18.554;2023-07-02T02:45:21;13.0;;;7.5;;
23360;SDS011;11852;50.082;18.554;2023-07-02T02:46:27;14.7;;;7.5;;
23360;SDS011;11852;50.082;18.554;2023-07-02T02:47:37;12.8;;;7.0;;
23360;SDS011;11852;50.082;18.554;2023-07-02T02:48:42;13.5;;;7.1;;
23360;SDS011;11852;50.082;18.554;2023-07-02T02:49:47;11.4;;;6.7;;
23360;SDS011;11852;50.082;18.554;2023-07-02T02:50:52;14.2;;;7.5;;
23360;SDS011;11852;50.082;18.554;2023-07-02T02:51:58;13.0;;;7.1;;
23360;SDS011;11852;50.082;18.554;2023-07-02T02:53:03;10.5;;;6.2;;
23360;SDS011;11852;50.082;18.554;2023-07-02T02:54:08;11.3;;;6.3;;
23360;SDS011;11852;50.082;18.554;2023-07-02T02:55:14;11.2;;;6.6;;
23360;SDS011;11852;50.082;18.554;2023-07-02T02:56:19;10.3;;;6.6;;
23360;SDS011;11852;50.082;18.554;2023-07-02T02:57:24;12.0;;;6.7;;
23360;SDS011;11852;50.082;18.554;2023-07-02T02:58:29;12.5;;;6.7;;
23360;SDS011;11852;50.082;18.554;2023-07-02T02:59:34;11.4;;;6.4;;
23360;SDS011;11852;50.082;18.554;2023-07-02T03:00:39;12.7;;;6.7;;
23360;SDS011;11852;50.082;18.554;2023-07-02T03:01:44;10.8;;;6.4;;
23360;SDS011;11852;50.082;18.554;2023-07-02T03:02:49;11.5;;;6.6;;
23360;SDS011;11852;50.082;18.554;2023-07-02T03:03:53;11.8;;;6.4;;
23360;SDS011;11852;50.082;18.554;2023-07-02T03:04:58;12.1;;;6.8;;
23360;SDS011;11852;50.082;18.554;2023-07-02T03:06:03;11.1;;;6.8;;
23360;SDS011;11852;50.082;18.554;2023-07-02T03:07:08;10.9;;;7.0;;
23360;SDS011;11852;50.082;18.554;2023-07-02T03:08:14;9.9;;;7.1;;
23360;SDS011;11852;50.082;18.554;2023-07-02T03:09:19;11.1;;;6.4;;
23360;SDS011;11852;50.082;18.554;2023-07-02T03:10:24;10.5;;;6.3;;
23360;SDS011;11852;50.082;18.554;2023-07-02T03:11:29;11.6;;;6.9;;
23360;SDS011;11852;50.082;18.554;2023-07-02T03:12:34;11.7;;;6.2;;
23360;SDS011;11852;50.082;18.554;2023-07-02T03:13:38;10.6;;;6.7;;
23360;SDS011;11852;50.082;18.554;2023-07-02T03:14:45;11.5;;;6.9;;
23360;SDS011;11852;50.082;18.554;2023-07-02T03:15:49;11.4;;;6.6;;
23360;SDS011;11852;50.082;18.554;2023-07-02T03:16:54;11.6;;;7.0;;
23360;SDS011;11852;50.082;18.554;2023-07-02T03:18:00;11.5;;;6.9;;
23360;SDS011;11852;50.082;18.554;2023-07-02T03:19:05;9.8;;;6.0;;
23360;SDS011;11852;50.082;18.554;2023-07-02T03:20:10;12.7;;;6.9;;
23360;SDS011;11852;50.082;18.554;2023-07-02T03:21:15;14.3;;;7.1;;
23360;SDS011;11852;50.082;18.554;2023-07-02T03:22:20;11.5;;;6.7;;
23360;SDS011;11852;50.082;18.554;2023-07-02T03:23:26;9.4;;;6.4;;
23360;SDS011;11852;50.082;18.554;2023-07-02T03:24:30;10.9;;;6.8;;
23360;SDS011;11852;50.082;18.554;2023-07-02T03:25:35;11.1;;;6.6;;
23360;SDS011;11852;50.082;18.554;2023-07-02T03:26:40;11.5;;;6.6;;
23360;SDS011;11852;50.082;18.554;2023-07-02T03:27:45;10.4;;;6.5;;
23360;SDS011;11852;50.082;18.554;2023-07-02T03:28:49;10.5;;;6.2;;
23360;SDS011;11852;50.082;18.554;2023-07-02T03:29:54;13.1;;;6.9;;
23360;SDS011;11852;50.082;18.554;2023-07-02T03:30:59;10.4;;;6.4;;
23360;SDS011;11852;50.082;18.554;2023-07-02T03:32:05;11.1;;;6.5;;
23360;SDS011;11852;50.082;18.554;2023-07-02T03:33:10;10.3;;;6.6;;
23360;SDS011;11852;50.082;18.554;2023-07-02T03:34:16;10.4;;;7.2;;
23360;SDS011;11852;50.082;18.554;2023-07-02T03:35:22;11.0;;;6.8;;
23360;SDS011;11852;50.082;18.554;2023-07-02T03:36:27;11.4;;;7.2;;
23360;SDS011;11852;50.082;18.554;2023-07-02T03:37:31;9.6;;;6.4;;
23360;SDS011;11852;50.082;18.554;2023-07-02T03:38:36;14.1;;;6.5;;
23360;SDS011;11852;50.082;18.554;2023-07-02T03:39:41;10.0;;;6.2;;
23360;SDS011;11852;50.082;18.554;2023-07-02T03:40:46;10.3;;;6.4;;
23360;SDS011;11852;50.082;18.554;2023-07-02T03:41:51;11.2;;;6.3;;
23360;SDS011;11852;50.082;18.554;2023-07-02T03:42:56;12.2;;;6.4;;
23360;SDS011;11852;50.082;18.554;2023-07-02T03:44:00;9.5;;;6.2;;
23360;SDS011;11852;50.082;18.554;2023-07-02T03:45:05;9.7;;;5.6;;
23360;SDS011;11852;50.082;18.554;2023-07-02T03:46:10;12.2;;;6.0;;
23360;SDS011;11852;50.082;18.554;2023-07-02T03:47:15;9.3;;;6.0;;
23360;SDS011;11852;50.082;18.554;2023-07-02T03:48:20;10.6;;;6.4;;
23360;SDS011;11852;50.082;18.554;2023-07-02T03:49:25;10.3;;;6.5;;
23360;SDS011;11852;50.082;18.554;2023-07-02T03:50:30;10.6;;;5.9;;
23360;SDS011;11852;50.082;18.554;2023-07-02T03:51:35;11.4;;;6.1;;
23360;SDS011;11852;50.082;18.554;2023-07-02T03:52:41;10.2;;;5.9;;
23360;SDS011;11852;50.082;18.554;2023-07-02T03:53:46;10.2;;;6.3;;
23360;SDS011;11852;50.082;18.554;2023-07-02T03:54:52;9.8;;;6.7;;
23360;SDS011;11852;50.082;18.554;2023-07-02T03:55:56;9.3;;;6.0;;
23360;SDS011;11852;50.082;18.554;2023-07-02T03:57:01;9.9;;;5.9;;
23360;SDS011;11852;50.082;18.554;2023-07-02T03:58:07;9.4;;;6.1;;
23360;SDS011;11852;50.082;18.554;2023-07-02T03:59:13;10.5;;;6.0;;
23360;SDS011;11852;50.082;18.554;2023-07-02T04:00:19;11.0;;;6.3;;
23360;SDS011;11852;50.082;18.554;2023-07-02T04:01:24;10.2;;;6.3;;
23360;SDS011;11852;50.082;18.554;2023-07-02T04:02:30;11.5;;;6.4;;
23360;SDS011;11852;50.082;18.554;2023-07-02T04:03:34;9.8;;;6.0;;
23360;SDS011;11852;50.082;18.554;2023-07-02T04:04:39;9.5;;;5.6;;
23360;SDS011;11852;50.082;18.554;2023-07-02T04:05:44;9.9;;;6.0;;
23360;SDS011;11852;50.082;18.554;2023-07-02T04:06:49;10.2;;;6.1;;
23360;SDS011;11852;50.082;18.554;2023-07-02T04:07:55;9.8;;;6.3;;
23360;SDS011;11852;50.082;18.554;2023-07-02T04:09:00;10.5;;;6.2;;
23360;SDS011;11852;50.082;18.554;2023-07-02T04:10:05;9.6;;;6.0;;
23360;SDS011;11852;50.082;18.554;2023-07-02T04:11:11;10.9;;;6.1;;
23360;SDS011;11852;50.082;18.554;2023-07-02T04:12:17;10.4;;;5.9;;
23360;SDS011;11852;50.082;18.554;2023-07-02T04:13:21;8.6;;;5.4;;
23360;SDS011;11852;50.082;18.554;2023-07-02T04:14:28;11.0;;;5.9;;
23360;SDS011;11852;50.082;18.554;2023-07-02T04:15:33;11.0;;;5.8;;
23360;SDS011;11852;50.082;18.554;2023-07-02T04:16:38;11.2;;;6.0;;
23360;SDS011;11852;50.082;18.554;2023-07-02T04:17:42;10.8;;;5.8;;
23360;SDS011;11852;50.082;18.554;2023-07-02T04:18:48;9.6;;;5.5;;
23360;SDS011;11852;50.082;18.554;2023-07-02T04:19:54;10.6;;;5.9;;
23360;SDS011;11852;50.082;18.554;2023-07-02T04:20:59;9.2;;;5.9;;
23360;SDS011;11852;50.082;18.554;2023-07-02T04:22:03;9.9;;;5.8;;
23360;SDS011;11852;50.082;18.554;2023-07-02T04:23:08;11.2;;;6.1;;
23360;SDS011;11852;50.082;18.554;2023-07-02T04:24:13;10.1;;;5.6;;
23360;SDS011;11852;50.082;18.554;2023-07-02T04:25:19;9.8;;;6.1;;
23360;SDS011;11852;50.082;18.554;2023-07-02T04:26:24;10.8;;;5.8;;
23360;SDS011;11852;50.082;18.554;2023-07-02T04:27:28;11.2;;;5.7;;
23360;SDS011;11852;50.082;18.554;2023-07-02T04:28:34;10.8;;;5.9;;
23360;SDS011;11852;50.082;18.554;2023-07-02T04:29:39;10.3;;;6.0;;
23360;SDS011;11852;50.082;18.554;2023-07-02T04:30:44;9.2;;;5.8;;
23360;SDS011;11852;50.082;18.554;2023-07-02T04:31:50;9.8;;;5.4;;
23360;SDS011;11852;50.082;18.554;2023-07-02T04:32:54;9.4;;;5.4;;
23360;SDS011;11852;50.082;18.554;2023-07-02T04:33:59;9.8;;;5.7;;
23360;SDS011;11852;50.082;18.554;2023-07-02T04:35:07;9.0;;;5.6;;
23360;SDS011;11852;50.082;18.554;2023-07-02T04:36:11;10.6;;;5.1;;
23360;SDS011;11852;50.082;18.554;2023-07-02T04:37:16;8.9;;;5.2;;
23360;SDS011;11852;50.082;18.554;2023-07-02T04:38:21;9.4;;;5.4;;
23360;SDS011;11852;50.082;18.554;2023-07-02T04:39:27;11.6;;;5.8;;
23360;SDS011;11852;50.082;18.554;2023-07-02T04:40:31;9.8;;;5.7;;
23360;SDS011;11852;50.082;18.554;2023-07-02T04:41:36;10.0;;;5.8;;
23360;SDS011;11852;50.082;18.554;2023-07-02T04:42:42;9.6;;;5.9;;
23360;SDS011;11852;50.082;18.554;2023-07-02T04:43:46;12.4;;;6.2;;
23360;SDS011;11852;50.082;18.554;2023-07-02T04:44:51;11.6;;;5.8;;
23360;SDS011;11852;50.082;18.554;2023-07-02T04:45:57;10.5;;;5.9;;
23360;SDS011;11852;50.082;18.554;2023-07-02T04:47:02;11.1;;;6.1;;
23360;SDS011;11852;50.082;18.554;2023-07-02T04:48:07;11.7;;;6.3;;
23360;SDS011;11852;50.082;18.554;2023-07-02T04:49:12;9.7;;;5.5;;
23360;SDS011;11852;50.082;18.554;2023-07-02T04:50:17;9.5;;;6.0;;
23360;SDS011;11852;50.082;18.554;2023-07-02T04:51:21;10.3;;;5.9;;
23360;SDS011;11852;50.082;18.554;2023-07-02T04:52:26;10.4;;;5.9;;
23360;SDS011;11852;50.082;18.554;2023-07-02T04:53:32;9.4;;;5.5;;
23360;SDS011;11852;50.082;18.554;2023-07-02T04:54:38;10.8;;;5.7;;
23360;SDS011;11852;50.082;18.554;2023-07-02T04:55:43;11.8;;;6.1;;
23360;SDS011;11852;50.082;18.554;2023-07-02T04:56:48;10.1;;;5.6;;
23360;SDS011;11852;50.082;18.554;2023-07-02T04:57:53;10.1;;;5.4;;
23360;SDS011;11852;50.082;18.554;2023-07-02T04:58:59;8.5;;;5.2;;
23360;SDS011;11852;50.082;18.554;2023-07-02T05:00:04;9.4;;;5.5;;
23360;SDS011;11852;50.082;18.554;2023-07-02T05:01:09;9.7;;;5.1;;
23360;SDS011;11852;50.082;18.554;2023-07-02T05:02:14;11.1;;;5.0;;
23360;SDS011;11852;50.082;18.554;2023-07-02T05:03:19;9.6;;;4.9;;
23360;SDS011;11852;50.082;18.554;2023-07-02T05:04:24;10.4;;;5.5;;
23360;SDS011;11852;50.082;18.554;2023-07-02T05:05:28;10.6;;;5.5;;
23360;SDS011;11852;50.082;18.554;2023-07-02T05:06:33;9.2;;;5.7;;
23360;SDS011;11852;50.082;18.554;2023-07-02T05:07:40;8.4;;;5.2;;
23360;SDS011;11852;50.082;18.554;2023-07-02T05:08:43;9.8;;;5.3;;
23360;SDS011;11852;50.082;18.554;2023-07-02T05:09:50;12.0;;;5.2;;
23360;SDS011;11852;50.082;18.554;2023-07-02T05:10:56;10.9;;;5.4;;
23360;SDS011;11852;50.082;18.554;2023-07-02T05:12:02;8.8;;;5.3;;
23360;SDS011;11852;50.082;18.554;2023-07-02T05:13:07;9.5;;;5.7;;
23360;SDS011;11852;50.082;18.554;2023-07-02T05:14:13;10.1;;;5.3;;
23360;SDS011;11852;50.082;18.554;2023-07-02T05:15:18;9.7;;;5.4;;
23360;SDS011;11852;50.082;18.554;2023-07-02T05:16:24;7.8;;;5.1;;
23360;SDS011;11852;50.082;18.554;2023-07-02T05:17:29;9.8;;;5.3;;
23360;SDS011;11852;50.082;18.554;2023-07-02T05:18:35;10.0;;;5.3;;
23360;SDS011;11852;50.082;18.554;2023-07-02T05:19:41;11.3;;;5.6;;
23360;SDS011;11852;50.082;18.554;2023-07-02T05:20:46;11.4;;;5.5;;
23360;SDS011;11852;50.082;18.554;2023-07-02T05:21:51;8.5;;;4.8;;
23360;SDS011;11852;50.082;18.554;2023-07-02T05:22:55;10.0;;;5.4;;
23360;SDS011;11852;50.082;18.554;2023-07-02T05:24:00;9.6;;;5.5;;
23360;SDS011;11852;50.082;18.554;2023-07-02T05:25:06;11.6;;;5.2;;
23360;SDS011;11852;50.082;18.554;2023-07-02T05:26:12;9.8;;;4.9;;
23360;SDS011;11852;50.082;18.554;2023-07-02T05:27:17;9.6;;;5.1;;
23360;SDS011;11852;50.082;18.554;2023-07-02T05:28:22;9.9;;;5.1;;
23360;SDS011;11852;50.082;18.554;2023-07-02T05:29:26;9.4;;;5.7;;
23360;SDS011;11852;50.082;18.554;2023-07-02T05:30:32;10.1;;;5.3;;
23360;SDS011;11852;50.082;18.554;2023-07-02T05:31:37;11.1;;;5.4;;
23360;SDS011;11852;50.082;18.554;2023-07-02T05:32:42;10.1;;;5.6;;
23360;SDS011;11852;50.082;18.554;2023-07-02T05:33:48;10.0;;;5.3;;
23360;SDS011;11852;50.082;18.554;2023-07-02T05:34:53;8.0;;;5.0;;
23360;SDS011;11852;50.082;18.554;2023-07-02T05:35:58;9.3;;;5.1;;
23360;SDS011;11852;50.082;18.554;2023-07-02T05:37:03;9.5;;;5.1;;
23360;SDS011;11852;50.082;18.554;2023-07-02T05:38:08;9.4;;;5.5;;
23360;SDS011;11852;50.082;18.554;2023-07-02T05:39:13;9.8;;;5.0;;
23360;SDS011;11852;50.082;18.554;2023-07-02T05:40:19;9.6;;;5.2;;
23360;SDS011;11852;50.082;18.554;2023-07-02T05:41:24;9.1;;;4.7;;
23360;SDS011;11852;50.082;18.554;2023-07-02T05:42:29;9.0;;;4.8;;
23360;SDS011;11852;50.082;18.554;2023-07-02T05:43:34;9.6;;;5.2;;
23360;SDS011;11852;50.082;18.554;2023-07-02T05:44:39;9.2;;;5.1;;
23360;SDS011;11852;50.082;18.554;2023-07-02T05:45:44;12.6;;;4.6;;
23360;SDS011;11852;50.082;18.554;2023-07-02T05:46:49;8.8;;;4.4;;
23360;SDS011;11852;50.082;18.554;2023-07-02T05:47:53;10.7;;;5.3;;
23360;SDS011;11852;50.082;18.554;2023-07-02T05:48:58;8.6;;;4.7;;
23360;SDS011;11852;50.082;18.554;2023-07-02T05:50:03;8.0;;;4.6;;
23360;SDS011;11852;50.082;18.554;2023-07-02T05:51:08;9.1;;;4.5;;
23360;SDS011;11852;50.082;18.554;2023-07-02T05:52:13;8.4;;;4.6;;
23360;SDS011;11852;50.082;18.554;2023-07-02T05:53:18;8.1;;;4.5;;
23360;SDS011;11852;50.082;18.554;2023-07-02T05:54:23;7.0;;;4.5;;
23360;SDS011;11852;50.082;18.554;2023-07-02T05:55:27;8.5;;;4.0;;
23360;SDS011;11852;50.082;18.554;2023-07-02T05:56:32;11.1;;;4.4;;
23360;SDS011;11852;50.082;18.554;2023-07-02T05:57:37;7.3;;;4.6;;
23360;SDS011;11852;50.082;18.554;2023-07-02T05:58:42;8.2;;;4.7;;
23360;SDS011;11852;50.082;18.554;2023-07-02T05:59:47;6.5;;;4.2;;
23360;SDS011;11852;50.082;18.554;2023-07-02T06:00:53;8.2;;;3.9;;
23360;SDS011;11852;50.082;18.554;2023-07-02T06:01:58;9.3;;;4.1;;
23360;SDS011;11852;50.082;18.554;2023-07-02T06:03:03;14.0;;;4.0;;
23360;SDS011;11852;50.082;18.554;2023-07-02T06:04:08;7.2;;;3.9;;
23360;SDS011;11852;50.082;18.554;2023-07-02T06:05:14;8.1;;;4.6;;
23360;SDS011;11852;50.082;18.554;2023-07-02T06:06:18;7.5;;;4.1;;
23360;SDS011;11852;50.082;18.554;2023-07-02T06:07:24;6.4;;;3.8;;
23360;SDS011;11852;50.082;18.554;2023-07-02T06:08:29;8.4;;;3.7;;
23360;SDS011;11852;50.082;18.554;2023-07-02T06:09:34;8.3;;;4.1;;
23360;SDS011;11852;50.082;18.554;2023-07-02T06:10:40;7.8;;;4.0;;
23360;SDS011;11852;50.082;18.554;2023-07-02T06:11:46;7.5;;;3.8;;
23360;SDS011;11852;50.082;18.554;2023-07-02T06:12:50;7.9;;;3.7;;
23360;SDS011;11852;50.082;18.554;2023-07-02T06:13:56;7.7;;;3.8;;
23360;SDS011;11852;50.082;18.554;2023-07-02T06:15:01;6.8;;;3.9;;
23360;SDS011;11852;50.082;18.554;2023-07-02T06:16:06;9.1;;;3.7;;
23360;SDS011;11852;50.082;18.554;2023-07-02T06:17:11;8.5;;;3.8;;
23360;SDS011;11852;50.082;18.554;2023-07-02T06:18:15;7.1;;;3.9;;
23360;SDS011;11852;50.082;18.554;2023-07-02T06:19:20;8.3;;;3.8;;
23360;SDS011;11852;50.082;18.554;2023-07-02T06:20:25;7.3;;;3.7;;
23360;SDS011;11852;50.082;18.554;2023-07-02T06:21:30;8.0;;;3.7;;
23360;SDS011;11852;50.082;18.554;2023-07-02T06:22:35;8.2;;;4.0;;
23360;SDS011;11852;50.082;18.554;2023-07-02T06:23:42;7.3;;;3.9;;
23360;SDS011;11852;50.082;18.554;2023-07-02T06:24:47;7.0;;;3.6;;
23360;SDS011;11852;50.082;18.554;2023-07-02T06:25:52;7.9;;;4.0;;
23360;SDS011;11852;50.082;18.554;2023-07-02T06:26:57;7.8;;;3.5;;
23360;SDS011;11852;50.082;18.554;2023-07-02T06:28:02;8.0;;;3.4;;
23360;SDS011;11852;50.082;18.554;2023-07-02T06:29:06;7.3;;;3.6;;
23360;SDS011;11852;50.082;18.554;2023-07-02T06:30:11;8.1;;;3.4;;
23360;SDS011;11852;50.082;18.554;2023-07-02T06:31:17;7.4;;;3.6;;
23360;SDS011;11852;50.082;18.554;2023-07-02T06:32:22;7.2;;;3.7;;
23360;SDS011;11852;50.082;18.554;2023-07-02T06:33:27;7.2;;;3.6;;
23360;SDS011;11852;50.082;18.554;2023-07-02T06:34:32;7.7;;;3.6;;
23360;SDS011;11852;50.082;18.554;2023-07-02T06:35:38;7.3;;;3.8;;
23360;SDS011;11852;50.082;18.554;2023-07-02T06:36:43;7.9;;;3.4;;
23360;SDS011;11852;50.082;18.554;2023-07-02T06:37:48;7.1;;;3.3;;